sensor_id;sensor_type;location;lat;lon;timestamp;P1;durP1;ratioP1;P2;durP2;ratioP2
29370;SDS011;16357;52.188;7.838;2023-12-20T00:01:00;8.48;;;3.17;;
29370;SDS011;16357;52.188;7.838;2023-12-20T00:03:26;9.15;;;3.50;;
29370;SDS011;16357;52.188;7.838;2023-12-20T00:05:53;7.78;;;3.70;;
29370;SDS011;16357;52.188;7.838;2023-12-20T00:08:19;10.07;;;3.65;;
29370;SDS011;16357;52.188;7.838;2023-12-20T00:10:46;6.68;;;3.58;;
29370;SDS011;16357;52.188;7.838;2023-12-20T00:13:12;9.65;;;3.33;;
29370;SDS011;16357;52.188;7.838;2023-12-20T00:15:39;6.72;;;3.40;;
29370;SDS011;16357;52.188;7.838;2023-12-20T00:18:05;8.40;;;3.35;;
29370;SDS011;16357;52.188;7.838;2023-12-20T00:20:32;5.45;;;3.00;;
29370;SDS011;16357;52.188;7.838;2023-12-20T00:22:58;6.40;;;2.50;;
29370;SDS011;16357;52.188;7.838;2023-12-20T00:25:25;6.57;;;2.97;;
29370;SDS011;16357;52.188;7.838;2023-12-20T00:27:51;8.60;;;2.88;;
29370;SDS011;16357;52.188;7.838;2023-12-20T00:30:18;6.75;;;2.75;;
29370;SDS011;16357;52.188;7.838;2023-12-20T00:32:45;6.38;;;3.00;;
29370;SDS011;16357;52.188;7.838;2023-12-20T00:35:15;5.03;;;2.53;;
29370;SDS011;16357;52.188;7.838;2023-12-20T00:37:42;5.38;;;2.58;;
29370;SDS011;16357;52.188;7.838;2023-12-20T00:40:09;6.45;;;2.40;;
29370;SDS011;16357;52.188;7.838;2023-12-20T00:42:36;6.40;;;2.20;;
29370;SDS011;16357;52.188;7.838;2023-12-20T00:45:03;9.48;;;2.67;;
29370;SDS011;16357;52.188;7.838;2023-12-20T00:47:31;5.05;;;2.67;;
29370;SDS011;16357;52.188;7.838;2023-12-20T00:49:57;6.55;;;2.50;;
29370;SDS011;16357;52.188;7.838;2023-12-20T00:52:24;3.95;;;2.35;;
29370;SDS011;16357;52.188;7.838;2023-12-20T00:54:51;5.78;;;2.78;;
29370;SDS011;16357;52.188;7.838;2023-12-20T00:57:18;9.65;;;2.95;;
29370;SDS011;16357;52.188;7.838;2023-12-20T00:59:45;7.15;;;2.80;;
29370;SDS011;16357;52.188;7.838;2023-12-20T01:02:11;5.03;;;3.10;;
29370;SDS011;16357;52.188;7.838;2023-12-20T01:04:37;9.02;;;2.97;;
29370;SDS011;16357;52.188;7.838;2023-12-20T01:07:04;6.53;;;2.83;;
29370;SDS011;16357;52.188;7.838;2023-12-20T01:09:31;7.75;;;2.63;;
29370;SDS011;16357;52.188;7.838;2023-12-20T01:11:57;8.40;;;3.25;;
29370;SDS011;16357;52.188;7.838;2023-12-20T01:14:24;4.22;;;2.50;;
29370;SDS011;16357;52.188;7.838;2023-12-20T01:16:50;6.18;;;2.72;;
29370;SDS011;16357;52.188;7.838;2023-12-20T01:19:17;7.22;;;2.65;;
29370;SDS011;16357;52.188;7.838;2023-12-20T01:21:43;8.82;;;3.28;;
29370;SDS011;16357;52.188;7.838;2023-12-20T01:24:10;6.90;;;2.70;;
29370;SDS011;16357;52.188;7.838;2023-12-20T01:26:36;7.25;;;3.00;;
29370;SDS011;16357;52.188;7.838;2023-12-20T01:29:03;9.35;;;3.05;;
29370;SDS011;16357;52.188;7.838;2023-12-20T01:31:29;9.55;;;3.28;;
29370;SDS011;16357;52.188;7.838;2023-12-20T01:33:56;7.82;;;3.25;;
29370;SDS011;16357;52.188;7.838;2023-12-20T01:36:22;10.27;;;2.70;;
29370;SDS011;16357;52.188;7.838;2023-12-20T01:38:49;10.43;;;3.45;;
29370;SDS011;16357;52.188;7.838;2023-12-20T01:41:15;7.75;;;2.40;;
29370;SDS011;16357;52.188;7.838;2023-12-20T01:43:42;10.15;;;2.63;;
29370;SDS011;16357;52.188;7.838;2023-12-20T01:46:17;9.90;;;2.53;;
29370;SDS011;16357;52.188;7.838;2023-12-20T01:48:43;6.43;;;2.40;;
29370;SDS011;16357;52.188;7.838;2023-12-20T01:51:10;6.15;;;2.65;;
29370;SDS011;16357;52.188;7.838;2023-12-20T01:53:38;5.97;;;2.67;;
29370;SDS011;16357;52.188;7.838;2023-12-20T01:56:07;4.85;;;2.33;;
29370;SDS011;16357;52.188;7.838;2023-12-20T01:58:34;7.72;;;2.67;;
29370;SDS011;16357;52.188;7.838;2023-12-20T02:01:09;13.88;;;3.42;;
29370;SDS011;16357;52.188;7.838;2023-12-20T02:03:36;8.82;;;2.83;;
29370;SDS011;16357;52.188;7.838;2023-12-20T02:06:03;9.27;;;2.83;;
29370;SDS011;16357;52.188;7.838;2023-12-20T02:08:31;9.43;;;2.63;;
29370;SDS011;16357;52.188;7.838;2023-12-20T02:10:57;8.48;;;2.83;;
29370;SDS011;16357;52.188;7.838;2023-12-20T02:13:24;8.27;;;3.30;;
29370;SDS011;16357;52.188;7.838;2023-12-20T02:15:53;9.85;;;3.15;;
29370;SDS011;16357;52.188;7.838;2023-12-20T02:18:21;7.72;;;3.00;;
29370;SDS011;16357;52.188;7.838;2023-12-20T02:20:48;9.05;;;3.22;;
29370;SDS011;16357;52.188;7.838;2023-12-20T02:23:14;9.57;;;3.08;;
29370;SDS011;16357;52.188;7.838;2023-12-20T02:25:41;10.30;;;3.42;;
29370;SDS011;16357;52.188;7.838;2023-12-20T02:28:07;8.43;;;3.25;;
29370;SDS011;16357;52.188;7.838;2023-12-20T02:30:34;7.93;;;3.45;;
29370;SDS011;16357;52.188;7.838;2023-12-20T02:33:01;10.02;;;4.22;;
29370;SDS011;16357;52.188;7.838;2023-12-20T02:35:30;11.48;;;4.00;;
29370;SDS011;16357;52.188;7.838;2023-12-20T02:37:56;11.77;;;3.88;;
29370;SDS011;16357;52.188;7.838;2023-12-20T02:40:22;10.68;;;4.32;;
29370;SDS011;16357;52.188;7.838;2023-12-20T02:42:49;11.40;;;4.38;;
29370;SDS011;16357;52.188;7.838;2023-12-20T02:45:15;12.43;;;4.25;;
29370;SDS011;16357;52.188;7.838;2023-12-20T02:47:42;9.57;;;4.10;;
29370;SDS011;16357;52.188;7.838;2023-12-20T02:50:09;12.38;;;4.07;;
29370;SDS011;16357;52.188;7.838;2023-12-20T02:52:35;13.52;;;3.78;;
29370;SDS011;16357;52.188;7.838;2023-12-20T02:55:02;11.20;;;3.92;;
29370;SDS011;16357;52.188;7.838;2023-12-20T02:57:28;13.57;;;4.55;;
29370;SDS011;16357;52.188;7.838;2023-12-20T02:59:55;12.38;;;4.40;;
29370;SDS011;16357;52.188;7.838;2023-12-20T03:02:21;13.80;;;4.50;;
29370;SDS011;16357;52.188;7.838;2023-12-20T03:04:48;8.60;;;3.42;;
29370;SDS011;16357;52.188;7.838;2023-12-20T03:07:14;15.63;;;4.15;;
29370;SDS011;16357;52.188;7.838;2023-12-20T03:09:41;10.02;;;3.83;;
29370;SDS011;16357;52.188;7.838;2023-12-20T03:12:27;9.75;;;3.97;;
29370;SDS011;16357;52.188;7.838;2023-12-20T03:14:53;10.95;;;3.97;;
29370;SDS011;16357;52.188;7.838;2023-12-20T03:17:20;12.18;;;4.00;;
29370;SDS011;16357;52.188;7.838;2023-12-20T03:19:47;10.65;;;4.20;;
29370;SDS011;16357;52.188;7.838;2023-12-20T03:22:13;14.73;;;4.10;;
29370;SDS011;16357;52.188;7.838;2023-12-20T03:24:40;9.45;;;3.53;;
29370;SDS011;16357;52.188;7.838;2023-12-20T03:27:06;10.43;;;3.95;;
29370;SDS011;16357;52.188;7.838;2023-12-20T03:29:33;12.60;;;3.80;;
29370;SDS011;16357;52.188;7.838;2023-12-20T03:31:59;11.18;;;3.33;;
29370;SDS011;16357;52.188;7.838;2023-12-20T03:34:26;11.38;;;3.40;;
29370;SDS011;16357;52.188;7.838;2023-12-20T03:36:53;15.38;;;3.22;;
29370;SDS011;16357;52.188;7.838;2023-12-20T03:39:19;12.93;;;3.10;;
29370;SDS011;16357;52.188;7.838;2023-12-20T03:41:46;15.45;;;3.42;;
29370;SDS011;16357;52.188;7.838;2023-12-20T03:44:12;11.48;;;2.95;;
29370;SDS011;16357;52.188;7.838;2023-12-20T03:46:39;14.00;;;3.70;;
29370;SDS011;16357;52.188;7.838;2023-12-20T03:49:05;13.90;;;3.55;;
29370;SDS011;16357;52.188;7.838;2023-12-20T03:51:31;10.20;;;3.10;;
29370;SDS011;16357;52.188;7.838;2023-12-20T03:53:58;11.63;;;2.95;;
29370;SDS011;16357;52.188;7.838;2023-12-20T03:56:24;13.45;;;3.03;;
29370;SDS011;16357;52.188;7.838;2023-12-20T03:58:51;14.40;;;3.00;;
29370;SDS011;16357;52.188;7.838;2023-12-20T04:01:17;13.05;;;3.10;;
29370;SDS011;16357;52.188;7.838;2023-12-20T04:03:44;14.75;;;3.22;;
29370;SDS011;16357;52.188;7.838;2023-12-20T04:06:16;13.05;;;2.90;;
29370;SDS011;16357;52.188;7.838;2023-12-20T04:08:43;10.38;;;3.25;;
29370;SDS011;16357;52.188;7.838;2023-12-20T04:11:09;13.95;;;2.95;;
29370;SDS011;16357;52.188;7.838;2023-12-20T04:13:36;10.30;;;2.58;;
29370;SDS011;16357;52.188;7.838;2023-12-20T04:16:02;14.13;;;3.53;;
29370;SDS011;16357;52.188;7.838;2023-12-20T04:18:29;11.95;;;3.28;;
29370;SDS011;16357;52.188;7.838;2023-12-20T04:20:56;11.90;;;2.92;;
29370;SDS011;16357;52.188;7.838;2023-12-20T04:23:22;11.30;;;2.85;;
29370;SDS011;16357;52.188;7.838;2023-12-20T04:25:48;13.38;;;3.50;;
29370;SDS011;16357;52.188;7.838;2023-12-20T04:28:15;9.60;;;2.53;;
29370;SDS011;16357;52.188;7.838;2023-12-20T04:30:42;9.07;;;3.35;;
29370;SDS011;16357;52.188;7.838;2023-12-20T04:33:08;11.55;;;3.22;;
29370;SDS011;16357;52.188;7.838;2023-12-20T04:35:35;9.52;;;2.80;;
29370;SDS011;16357;52.188;7.838;2023-12-20T04:38:01;14.65;;;3.17;;
29370;SDS011;16357;52.188;7.838;2023-12-20T04:40:28;12.55;;;2.70;;
29370;SDS011;16357;52.188;7.838;2023-12-20T04:42:54;15.48;;;3.05;;
29370;SDS011;16357;52.188;7.838;2023-12-20T04:45:21;11.55;;;3.40;;
29370;SDS011;16357;52.188;7.838;2023-12-20T04:47:48;13.98;;;3.20;;
29370;SDS011;16357;52.188;7.838;2023-12-20T04:50:15;13.23;;;3.25;;
29370;SDS011;16357;52.188;7.838;2023-12-20T04:52:42;13.73;;;3.20;;
29370;SDS011;16357;52.188;7.838;2023-12-20T04:55:08;9.68;;;2.75;;
29370;SDS011;16357;52.188;7.838;2023-12-20T04:57:35;13.55;;;2.97;;
29370;SDS011;16357;52.188;7.838;2023-12-20T05:00:01;11.07;;;3.22;;
29370;SDS011;16357;52.188;7.838;2023-12-20T05:02:29;15.90;;;3.50;;
29370;SDS011;16357;52.188;7.838;2023-12-20T05:04:55;8.75;;;3.03;;
29370;SDS011;16357;52.188;7.838;2023-12-20T05:07:21;13.90;;;3.45;;
29370;SDS011;16357;52.188;7.838;2023-12-20T05:09:48;10.90;;;2.97;;
29370;SDS011;16357;52.188;7.838;2023-12-20T05:12:15;12.63;;;3.40;;
29370;SDS011;16357;52.188;7.838;2023-12-20T05:14:41;14.45;;;3.88;;
29370;SDS011;16357;52.188;7.838;2023-12-20T05:17:08;17.17;;;3.25;;
29370;SDS011;16357;52.188;7.838;2023-12-20T05:19:34;18.35;;;3.75;;
29370;SDS011;16357;52.188;7.838;2023-12-20T05:22:01;14.57;;;3.55;;
29370;SDS011;16357;52.188;7.838;2023-12-20T05:24:28;15.43;;;3.42;;
29370;SDS011;16357;52.188;7.838;2023-12-20T05:26:55;12.50;;;3.20;;
29370;SDS011;16357;52.188;7.838;2023-12-20T05:29:21;13.05;;;3.45;;
29370;SDS011;16357;52.188;7.838;2023-12-20T05:31:48;17.63;;;3.97;;
29370;SDS011;16357;52.188;7.838;2023-12-20T05:34:14;19.48;;;4.05;;
29370;SDS011;16357;52.188;7.838;2023-12-20T05:36:41;15.85;;;3.60;;
29370;SDS011;16357;52.188;7.838;2023-12-20T05:39:07;22.38;;;4.22;;
29370;SDS011;16357;52.188;7.838;2023-12-20T05:41:34;16.88;;;3.80;;
29370;SDS011;16357;52.188;7.838;2023-12-20T05:44:00;15.05;;;3.72;;
29370;SDS011;16357;52.188;7.838;2023-12-20T05:46:27;12.93;;;3.05;;
29370;SDS011;16357;52.188;7.838;2023-12-20T05:48:53;15.70;;;4.07;;
29370;SDS011;16357;52.188;7.838;2023-12-20T05:51:20;15.73;;;4.07;;
29370;SDS011;16357;52.188;7.838;2023-12-20T05:53:46;15.20;;;4.30;;
29370;SDS011;16357;52.188;7.838;2023-12-20T05:56:13;14.15;;;4.30;;
29370;SDS011;16357;52.188;7.838;2023-12-20T05:58:39;14.60;;;4.50;;
29370;SDS011;16357;52.188;7.838;2023-12-20T06:01:06;18.25;;;4.20;;
29370;SDS011;16357;52.188;7.838;2023-12-20T06:03:35;17.60;;;4.53;;
29370;SDS011;16357;52.188;7.838;2023-12-20T06:06:07;12.85;;;3.60;;
29370;SDS011;16357;52.188;7.838;2023-12-20T06:08:42;21.05;;;4.75;;
29370;SDS011;16357;52.188;7.838;2023-12-20T06:11:09;19.20;;;4.28;;
29370;SDS011;16357;52.188;7.838;2023-12-20T06:13:36;12.65;;;3.58;;
29370;SDS011;16357;52.188;7.838;2023-12-20T06:16:03;13.00;;;4.05;;
29370;SDS011;16357;52.188;7.838;2023-12-20T06:18:31;16.52;;;4.15;;
29370;SDS011;16357;52.188;7.838;2023-12-20T06:20:58;17.35;;;4.28;;
29370;SDS011;16357;52.188;7.838;2023-12-20T06:23:24;15.55;;;4.35;;
29370;SDS011;16357;52.188;7.838;2023-12-20T06:25:50;15.50;;;4.65;;
29370;SDS011;16357;52.188;7.838;2023-12-20T06:28:17;12.30;;;3.63;;
29370;SDS011;16357;52.188;7.838;2023-12-20T06:30:43;17.55;;;4.93;;
29370;SDS011;16357;52.188;7.838;2023-12-20T06:33:10;14.85;;;4.38;;
29370;SDS011;16357;52.188;7.838;2023-12-20T06:35:37;20.70;;;4.65;;
29370;SDS011;16357;52.188;7.838;2023-12-20T06:38:04;16.25;;;4.10;;
29370;SDS011;16357;52.188;7.838;2023-12-20T06:40:30;17.23;;;3.97;;
29370;SDS011;16357;52.188;7.838;2023-12-20T06:42:57;16.38;;;4.35;;
29370;SDS011;16357;52.188;7.838;2023-12-20T06:45:37;17.95;;;4.18;;
29370;SDS011;16357;52.188;7.838;2023-12-20T06:48:03;14.98;;;4.13;;
29370;SDS011;16357;52.188;7.838;2023-12-20T06:50:30;16.40;;;3.90;;
29370;SDS011;16357;52.188;7.838;2023-12-20T06:52:57;13.25;;;4.10;;
29370;SDS011;16357;52.188;7.838;2023-12-20T06:55:23;16.35;;;3.95;;
29370;SDS011;16357;52.188;7.838;2023-12-20T06:57:50;13.20;;;3.92;;
29370;SDS011;16357;52.188;7.838;2023-12-20T07:00:16;14.73;;;3.70;;
29370;SDS011;16357;52.188;7.838;2023-12-20T07:02:44;12.98;;;3.63;;
29370;SDS011;16357;52.188;7.838;2023-12-20T07:05:10;16.30;;;4.53;;
29370;SDS011;16357;52.188;7.838;2023-12-20T07:07:36;18.55;;;3.95;;
29370;SDS011;16357;52.188;7.838;2023-12-20T07:10:03;17.88;;;4.10;;
29370;SDS011;16357;52.188;7.838;2023-12-20T07:12:30;17.48;;;3.90;;
29370;SDS011;16357;52.188;7.838;2023-12-20T07:14:56;16.25;;;3.45;;
29370;SDS011;16357;52.188;7.838;2023-12-20T07:17:23;18.48;;;4.10;;
29370;SDS011;16357;52.188;7.838;2023-12-20T07:19:49;12.70;;;3.58;;
29370;SDS011;16357;52.188;7.838;2023-12-20T07:22:16;21.30;;;4.32;;
29370;SDS011;16357;52.188;7.838;2023-12-20T07:24:42;14.75;;;3.35;;
29370;SDS011;16357;52.188;7.838;2023-12-20T07:27:09;12.43;;;3.33;;
29370;SDS011;16357;52.188;7.838;2023-12-20T07:29:35;13.20;;;3.63;;
29370;SDS011;16357;52.188;7.838;2023-12-20T07:32:02;18.08;;;3.47;;
29370;SDS011;16357;52.188;7.838;2023-12-20T07:34:28;15.10;;;3.63;;
29370;SDS011;16357;52.188;7.838;2023-12-20T07:36:55;14.75;;;3.53;;
29370;SDS011;16357;52.188;7.838;2023-12-20T07:39:21;20.38;;;3.33;;
29370;SDS011;16357;52.188;7.838;2023-12-20T07:41:48;17.67;;;4.63;;
29370;SDS011;16357;52.188;7.838;2023-12-20T07:44:14;15.90;;;3.65;;
29370;SDS011;16357;52.188;7.838;2023-12-20T07:46:41;17.20;;;3.33;;
29370;SDS011;16357;52.188;7.838;2023-12-20T07:49:08;17.95;;;3.58;;
29370;SDS011;16357;52.188;7.838;2023-12-20T07:51:36;16.42;;;3.88;;
29370;SDS011;16357;52.188;7.838;2023-12-20T07:54:03;14.48;;;3.95;;
29370;SDS011;16357;52.188;7.838;2023-12-20T07:56:31;16.92;;;3.85;;
29370;SDS011;16357;52.188;7.838;2023-12-20T07:58:57;23.02;;;4.70;;
29370;SDS011;16357;52.188;7.838;2023-12-20T08:01:26;12.02;;;3.58;;
29370;SDS011;16357;52.188;7.838;2023-12-20T08:03:52;14.75;;;3.33;;
29370;SDS011;16357;52.188;7.838;2023-12-20T08:06:19;15.23;;;3.53;;
29370;SDS011;16357;52.188;7.838;2023-12-20T08:08:46;13.25;;;3.15;;
29370;SDS011;16357;52.188;7.838;2023-12-20T08:11:24;13.93;;;2.88;;
29370;SDS011;16357;52.188;7.838;2023-12-20T08:13:50;15.93;;;4.13;;
29370;SDS011;16357;52.188;7.838;2023-12-20T08:16:17;12.52;;;3.65;;
29370;SDS011;16357;52.188;7.838;2023-12-20T08:18:44;14.82;;;3.40;;
29370;SDS011;16357;52.188;7.838;2023-12-20T08:21:10;13.95;;;3.00;;
29370;SDS011;16357;52.188;7.838;2023-12-20T08:23:37;9.90;;;3.42;;
29370;SDS011;16357;52.188;7.838;2023-12-20T08:26:07;17.83;;;3.75;;
29370;SDS011;16357;52.188;7.838;2023-12-20T08:28:34;18.17;;;4.03;;
29370;SDS011;16357;52.188;7.838;2023-12-20T08:31:00;20.20;;;3.90;;
29370;SDS011;16357;52.188;7.838;2023-12-20T08:33:27;17.48;;;3.95;;
29370;SDS011;16357;52.188;7.838;2023-12-20T08:35:54;17.73;;;3.90;;
29370;SDS011;16357;52.188;7.838;2023-12-20T08:38:20;16.80;;;4.28;;
29370;SDS011;16357;52.188;7.838;2023-12-20T08:40:47;19.65;;;4.55;;
29370;SDS011;16357;52.188;7.838;2023-12-20T08:43:14;16.85;;;4.45;;
29370;SDS011;16357;52.188;7.838;2023-12-20T08:45:41;17.23;;;4.05;;
29370;SDS011;16357;52.188;7.838;2023-12-20T08:48:07;14.65;;;3.80;;
29370;SDS011;16357;52.188;7.838;2023-12-20T08:50:35;18.50;;;4.15;;
29370;SDS011;16357;52.188;7.838;2023-12-20T08:53:03;16.48;;;3.78;;
29370;SDS011;16357;52.188;7.838;2023-12-20T08:55:29;16.85;;;4.10;;
29370;SDS011;16357;52.188;7.838;2023-12-20T08:57:57;19.05;;;4.03;;
29370;SDS011;16357;52.188;7.838;2023-12-20T09:00:23;11.05;;;3.60;;
29370;SDS011;16357;52.188;7.838;2023-12-20T09:02:54;13.57;;;3.72;;
29370;SDS011;16357;52.188;7.838;2023-12-20T09:05:21;16.88;;;4.32;;
29370;SDS011;16357;52.188;7.838;2023-12-20T09:07:47;14.32;;;4.00;;
29370;SDS011;16357;52.188;7.838;2023-12-20T09:10:14;18.08;;;4.50;;
29370;SDS011;16357;52.188;7.838;2023-12-20T09:12:44;13.00;;;4.15;;
29370;SDS011;16357;52.188;7.838;2023-12-20T09:15:13;15.30;;;4.03;;
29370;SDS011;16357;52.188;7.838;2023-12-20T09:17:39;14.85;;;3.65;;
29370;SDS011;16357;52.188;7.838;2023-12-20T09:20:08;19.13;;;5.10;;
29370;SDS011;16357;52.188;7.838;2023-12-20T09:22:35;16.70;;;3.95;;
29370;SDS011;16357;52.188;7.838;2023-12-20T09:25:02;18.63;;;5.18;;
29370;SDS011;16357;52.188;7.838;2023-12-20T09:27:29;14.25;;;4.35;;
29370;SDS011;16357;52.188;7.838;2023-12-20T09:29:55;18.13;;;4.72;;
29370;SDS011;16357;52.188;7.838;2023-12-20T09:32:22;17.98;;;4.72;;
29370;SDS011;16357;52.188;7.838;2023-12-20T09:34:48;17.40;;;4.90;;
29370;SDS011;16357;52.188;7.838;2023-12-20T09:37:15;16.98;;;4.65;;
29370;SDS011;16357;52.188;7.838;2023-12-20T09:39:42;18.33;;;4.75;;
29370;SDS011;16357;52.188;7.838;2023-12-20T09:42:08;18.83;;;4.40;;
29370;SDS011;16357;52.188;7.838;2023-12-20T09:44:38;20.40;;;4.95;;
29370;SDS011;16357;52.188;7.838;2023-12-20T09:47:11;19.75;;;5.32;;
29370;SDS011;16357;52.188;7.838;2023-12-20T09:49:38;16.92;;;4.88;;
29370;SDS011;16357;52.188;7.838;2023-12-20T09:52:04;18.08;;;4.38;;
29370;SDS011;16357;52.188;7.838;2023-12-20T09:54:33;15.65;;;4.53;;
29370;SDS011;16357;52.188;7.838;2023-12-20T09:56:59;16.42;;;4.85;;
29370;SDS011;16357;52.188;7.838;2023-12-20T09:59:25;12.77;;;4.00;;
29370;SDS011;16357;52.188;7.838;2023-12-20T10:01:52;21.27;;;4.95;;
29370;SDS011;16357;52.188;7.838;2023-12-20T10:04:24;17.70;;;3.83;;
29370;SDS011;16357;52.188;7.838;2023-12-20T10:06:56;18.27;;;4.50;;
29370;SDS011;16357;52.188;7.838;2023-12-20T10:09:23;14.52;;;4.72;;
29370;SDS011;16357;52.188;7.838;2023-12-20T10:11:50;18.35;;;4.25;;
29370;SDS011;16357;52.188;7.838;2023-12-20T10:14:20;15.32;;;4.07;;
29370;SDS011;16357;52.188;7.838;2023-12-20T10:16:49;13.07;;;3.30;;
29370;SDS011;16357;52.188;7.838;2023-12-20T10:19:16;9.98;;;3.40;;
29370;SDS011;16357;52.188;7.838;2023-12-20T10:21:44;12.00;;;3.45;;
29370;SDS011;16357;52.188;7.838;2023-12-20T10:24:16;12.70;;;3.42;;
29370;SDS011;16357;52.188;7.838;2023-12-20T10:26:44;10.00;;;3.17;;
29370;SDS011;16357;52.188;7.838;2023-12-20T10:29:10;13.77;;;3.95;;
29370;SDS011;16357;52.188;7.838;2023-12-20T10:31:36;11.93;;;3.40;;
29370;SDS011;16357;52.188;7.838;2023-12-20T10:34:05;10.85;;;3.40;;
29370;SDS011;16357;52.188;7.838;2023-12-20T10:36:32;13.20;;;3.50;;
29370;SDS011;16357;52.188;7.838;2023-12-20T10:38:59;12.00;;;3.28;;
29370;SDS011;16357;52.188;7.838;2023-12-20T10:41:28;11.10;;;3.17;;
29370;SDS011;16357;52.188;7.838;2023-12-20T10:43:57;11.10;;;3.30;;
29370;SDS011;16357;52.188;7.838;2023-12-20T10:46:28;14.32;;;4.03;;
29370;SDS011;16357;52.188;7.838;2023-12-20T10:48:57;10.93;;;3.30;;
29370;SDS011;16357;52.188;7.838;2023-12-20T10:51:24;16.95;;;4.25;;
29370;SDS011;16357;52.188;7.838;2023-12-20T10:53:52;9.38;;;3.38;;
29370;SDS011;16357;52.188;7.838;2023-12-20T10:56:19;14.07;;;4.40;;
29370;SDS011;16357;52.188;7.838;2023-12-20T10:58:48;13.43;;;3.38;;
29370;SDS011;16357;52.188;7.838;2023-12-20T11:01:16;12.73;;;3.70;;
29370;SDS011;16357;52.188;7.838;2023-12-20T11:03:51;10.40;;;3.17;;
29370;SDS011;16357;52.188;7.838;2023-12-20T11:06:26;18.42;;;3.47;;
29370;SDS011;16357;52.188;7.838;2023-12-20T11:09:07;12.82;;;3.55;;
29370;SDS011;16357;52.188;7.838;2023-12-20T11:14:27;13.88;;;3.20;;
29370;SDS011;16357;52.188;7.838;2023-12-20T11:17:10;10.05;;;3.15;;
29370;SDS011;16357;52.188;7.838;2023-12-20T11:22:19;10.23;;;2.83;;
29370;SDS011;16357;52.188;7.838;2023-12-20T11:24:47;10.73;;;3.13;;
29370;SDS011;16357;52.188;7.838;2023-12-20T11:27:14;10.35;;;3.03;;
29370;SDS011;16357;52.188;7.838;2023-12-20T11:29:41;12.40;;;3.58;;
29370;SDS011;16357;52.188;7.838;2023-12-20T11:32:27;9.93;;;3.33;;
29370;SDS011;16357;52.188;7.838;2023-12-20T11:34:55;12.82;;;3.50;;
29370;SDS011;16357;52.188;7.838;2023-12-20T11:37:58;11.73;;;2.95;;
29370;SDS011;16357;52.188;7.838;2023-12-20T11:40:17;12.20;;;3.33;;
29370;SDS011;16357;52.188;7.838;2023-12-20T11:42:45;8.82;;;3.05;;
29370;SDS011;16357;52.188;7.838;2023-12-20T11:45:15;11.38;;;3.55;;
29370;SDS011;16357;52.188;7.838;2023-12-20T11:47:46;8.93;;;2.83;;
29370;SDS011;16357;52.188;7.838;2023-12-20T11:50:14;10.75;;;2.95;;
29370;SDS011;16357;52.188;7.838;2023-12-20T11:52:40;13.13;;;3.33;;
29370;SDS011;16357;52.188;7.838;2023-12-20T11:55:07;15.07;;;3.22;;
29370;SDS011;16357;52.188;7.838;2023-12-20T11:57:33;13.07;;;3.10;;
29370;SDS011;16357;52.188;7.838;2023-12-20T12:00:00;9.43;;;2.92;;
29370;SDS011;16357;52.188;7.838;2023-12-20T12:02:27;13.63;;;3.70;;
29370;SDS011;16357;52.188;7.838;2023-12-20T12:04:53;11.38;;;3.25;;
29370;SDS011;16357;52.188;7.838;2023-12-20T12:07:20;12.45;;;2.78;;
29370;SDS011;16357;52.188;7.838;2023-12-20T12:09:46;15.80;;;3.20;;
29370;SDS011;16357;52.188;7.838;2023-12-20T12:12:13;13.10;;;2.92;;
29370;SDS011;16357;52.188;7.838;2023-12-20T12:14:40;10.93;;;2.95;;
29370;SDS011;16357;52.188;7.838;2023-12-20T12:17:13;16.35;;;3.53;;
29370;SDS011;16357;52.188;7.838;2023-12-20T12:19:40;13.20;;;3.30;;
29370;SDS011;16357;52.188;7.838;2023-12-20T12:22:08;13.38;;;3.88;;
29370;SDS011;16357;52.188;7.838;2023-12-20T12:24:43;12.75;;;3.08;;
29370;SDS011;16357;52.188;7.838;2023-12-20T12:27:11;9.10;;;2.55;;
29370;SDS011;16357;52.188;7.838;2023-12-20T12:29:38;9.60;;;2.55;;
29370;SDS011;16357;52.188;7.838;2023-12-20T12:32:06;9.32;;;2.45;;
29370;SDS011;16357;52.188;7.838;2023-12-20T12:34:35;5.95;;;2.20;;
29370;SDS011;16357;52.188;7.838;2023-12-20T12:37:03;8.40;;;2.03;;
29370;SDS011;16357;52.188;7.838;2023-12-20T12:39:30;8.73;;;2.45;;
29370;SDS011;16357;52.188;7.838;2023-12-20T12:41:56;7.45;;;2.22;;
29370;SDS011;16357;52.188;7.838;2023-12-20T12:44:23;8.07;;;1.75;;
29370;SDS011;16357;52.188;7.838;2023-12-20T12:46:51;7.65;;;1.90;;
29370;SDS011;16357;52.188;7.838;2023-12-20T12:49:20;8.30;;;2.08;;
29370;SDS011;16357;52.188;7.838;2023-12-20T12:51:50;8.98;;;1.70;;
29370;SDS011;16357;52.188;7.838;2023-12-20T12:54:17;8.18;;;1.70;;
29370;SDS011;16357;52.188;7.838;2023-12-20T12:56:44;6.10;;;1.50;;
29370;SDS011;16357;52.188;7.838;2023-12-20T12:59:11;3.83;;;1.25;;
29370;SDS011;16357;52.188;7.838;2023-12-20T13:01:38;5.28;;;1.83;;
29370;SDS011;16357;52.188;7.838;2023-12-20T13:04:05;7.93;;;2.38;;
29370;SDS011;16357;52.188;7.838;2023-12-20T13:06:37;8.10;;;1.80;;
29370;SDS011;16357;52.188;7.838;2023-12-20T13:09:04;7.20;;;2.30;;
29370;SDS011;16357;52.188;7.838;2023-12-20T13:11:31;5.68;;;1.92;;
29370;SDS011;16357;52.188;7.838;2023-12-20T13:13:58;5.95;;;2.10;;
29370;SDS011;16357;52.188;7.838;2023-12-20T13:16:24;9.93;;;2.50;;
29370;SDS011;16357;52.188;7.838;2023-12-20T13:18:51;6.40;;;2.28;;
29370;SDS011;16357;52.188;7.838;2023-12-20T13:21:18;9.98;;;2.40;;
29370;SDS011;16357;52.188;7.838;2023-12-20T13:23:44;6.50;;;2.17;;
29370;SDS011;16357;52.188;7.838;2023-12-20T13:26:11;8.60;;;2.63;;
29370;SDS011;16357;52.188;7.838;2023-12-20T13:28:37;6.35;;;2.00;;
29370;SDS011;16357;52.188;7.838;2023-12-20T13:31:04;7.03;;;2.38;;
29370;SDS011;16357;52.188;7.838;2023-12-20T13:33:30;7.07;;;2.35;;
29370;SDS011;16357;52.188;7.838;2023-12-20T13:35:57;8.02;;;2.40;;
29370;SDS011;16357;52.188;7.838;2023-12-20T13:38:24;7.95;;;1.92;;
29370;SDS011;16357;52.188;7.838;2023-12-20T13:40:51;7.60;;;1.75;;
29370;SDS011;16357;52.188;7.838;2023-12-20T13:43:17;8.65;;;1.98;;
29370;SDS011;16357;52.188;7.838;2023-12-20T13:45:47;5.90;;;1.63;;
29370;SDS011;16357;52.188;7.838;2023-12-20T13:48:14;6.38;;;1.55;;
29370;SDS011;16357;52.188;7.838;2023-12-20T13:50:41;6.97;;;2.38;;
29370;SDS011;16357;52.188;7.838;2023-12-20T13:53:07;6.22;;;2.08;;
29370;SDS011;16357;52.188;7.838;2023-12-20T13:55:33;5.28;;;1.42;;
29370;SDS011;16357;52.188;7.838;2023-12-20T13:58:00;6.60;;;1.83;;
29370;SDS011;16357;52.188;7.838;2023-12-20T14:00:27;8.02;;;1.63;;
29370;SDS011;16357;52.188;7.838;2023-12-20T14:02:53;4.95;;;1.60;;
29370;SDS011;16357;52.188;7.838;2023-12-20T14:05:20;4.57;;;1.15;;
29370;SDS011;16357;52.188;7.838;2023-12-20T14:07:52;4.45;;;1.65;;
29370;SDS011;16357;52.188;7.838;2023-12-20T14:10:19;6.22;;;1.50;;
29370;SDS011;16357;52.188;7.838;2023-12-20T14:12:45;5.60;;;1.45;;
29370;SDS011;16357;52.188;7.838;2023-12-20T14:15:11;4.95;;;1.38;;
29370;SDS011;16357;52.188;7.838;2023-12-20T14:17:40;7.20;;;1.63;;
29370;SDS011;16357;52.188;7.838;2023-12-20T14:20:08;7.53;;;1.88;;
29370;SDS011;16357;52.188;7.838;2023-12-20T14:22:35;4.70;;;1.30;;
29370;SDS011;16357;52.188;7.838;2023-12-20T14:25:02;18.17;;;10.18;;
29370;SDS011;16357;52.188;7.838;2023-12-20T14:27:29;29.25;;;16.65;;
29370;SDS011;16357;52.188;7.838;2023-12-20T14:29:56;63.05;;;29.30;;
29370;SDS011;16357;52.188;7.838;2023-12-20T14:32:23;122.93;;;55.88;;
29370;SDS011;16357;52.188;7.838;2023-12-20T14:34:50;103.55;;;50.30;;
29370;SDS011;16357;52.188;7.838;2023-12-20T14:37:16;41.28;;;22.98;;
29370;SDS011;16357;52.188;7.838;2023-12-20T14:39:43;34.53;;;17.60;;
29370;SDS011;16357;52.188;7.838;2023-12-20T14:42:10;28.85;;;14.82;;
29370;SDS011;16357;52.188;7.838;2023-12-20T14:44:40;28.42;;;15.82;;